Terminal Aerodrome Forecast
Issued by NWS St Louis, MO

Home | Current Version | Previous Version | Text Only | Print | Product List | Glossary On
Versions: 1 2 3 4 5 6 7 8 9 10 11 12 13 14 15 16 17
000
FTUS43 KLSX 151716 AAB
TAFCOU
TAF AMD
KCOU 151716Z 1517/1612 31016G26KT P6SM SCT025
     FM151800 31016G26KT P6SM BKN035
     FM160600 31012G21KT P6SM BKN035=

USA.gov is the U.S. government's official web portal to all federal, state and local government web resources and services.